createdAt,value
2018-05-05T00:00:31.879Z,91.55
2018-05-05T00:02:59.518Z,91.68
2018-05-05T00:05:27.114Z,91.56
2018-05-05T00:07:54.769Z,91.58
2018-05-05T00:10:22.357Z,91.52
2018-05-05T00:12:50.011Z,91.25
2018-05-05T00:15:17.626Z,91.11
2018-05-05T00:17:45.267Z,91.21
2018-05-05T00:20:12.892Z,90.92
2018-05-05T00:22:40.561Z,91.27
2018-05-05T00:25:08.292Z,91.93
2018-05-05T00:27:36.012Z,92.13
2018-05-05T00:30:03.778Z,92.34
2018-05-05T00:32:31.429Z,91.94
2018-05-05T00:34:59.027Z,91.97
2018-05-05T00:37:27.434Z,93.21
2018-05-05T00:39:55.029Z,93.74
2018-05-05T00:42:22.717Z,94.01
2018-05-05T00:44:50.370Z,94.39
2018-05-05T00:47:17.959Z,93.53
2018-05-05T00:49:45.648Z,92.77
2018-05-05T00:52:13.372Z,92.84
2018-05-05T00:54:50.752Z,93.42
2018-05-05T00:57:18.420Z,93.88
2018-05-05T00:59:46.434Z,93.44
2018-05-05T01:02:14.068Z,93.20
2018-05-05T01:04:41.713Z,92.86
2018-05-05T01:07:09.594Z,93.11
2018-05-05T01:09:37.249Z,93.83
2018-05-05T01:12:04.904Z,93.50
2018-05-05T01:14:32.564Z,92.79
2018-05-05T01:17:00.256Z,92.56
2018-05-05T01:19:28.127Z,92.41
2018-05-05T01:21:55.733Z,92.42
2018-05-05T01:24:23.908Z,92.09
2018-05-05T01:26:51.540Z,91.78
2018-05-05T01:29:19.481Z,92.06
2018-05-05T01:31:47.548Z,93.05
2018-05-05T01:34:15.168Z,93.32
2018-05-05T01:36:43.286Z,93.29
2018-05-05T01:39:11.532Z,92.49
2018-05-05T01:41:39.416Z,92.12
2018-05-05T01:44:07.910Z,91.87
2018-05-05T01:46:35.514Z,91.71
2018-05-05T01:49:03.459Z,91.96
2018-05-05T01:51:31.923Z,91.98
2018-05-05T01:53:59.934Z,91.67
2018-05-05T01:56:28.460Z,91.50
2018-05-05T01:58:56.102Z,91.81
2018-05-05T02:01:23.737Z,92.02
2018-05-05T02:03:51.559Z,91.97
2018-05-05T02:06:19.940Z,92.22
2018-05-05T02:08:47.551Z,92.61
2018-05-05T02:11:15.676Z,92.39
2018-05-05T02:13:44.101Z,92.67
2018-05-05T02:16:11.774Z,92.56
2018-05-05T02:18:39.409Z,92.23
2018-05-05T02:21:07.243Z,92.03
2018-05-05T02:23:34.910Z,91.81
2018-05-05T02:26:03.207Z,91.89
2018-05-05T02:28:30.879Z,91.78
2018-05-05T02:30:58.724Z,91.35
2018-05-05T02:33:27.055Z,91.34
2018-05-05T02:35:55.447Z,92.67
2018-05-05T02:38:23.328Z,92.52
2018-05-05T02:40:50.999Z,91.98
2018-05-05T02:43:19.259Z,91.98
2018-05-05T02:45:47.357Z,91.85
2018-05-05T02:48:15.013Z,91.90
2018-05-05T02:50:43.597Z,91.83
2018-05-05T02:53:12.067Z,91.92
2018-05-05T02:55:39.850Z,91.95
2018-05-05T02:58:07.511Z,92.03
2018-05-05T03:00:35.157Z,91.93
2018-05-05T03:03:02.797Z,92.01
2018-05-05T03:05:30.478Z,92.03
2018-05-05T03:07:58.117Z,91.86
2018-05-05T03:10:25.724Z,91.60
2018-05-05T03:12:53.368Z,91.86
2018-05-05T03:15:21.045Z,92.28
2018-05-05T03:17:48.757Z,92.74
2018-05-05T03:20:16.443Z,92.67
2018-05-05T03:22:44.677Z,92.15
2018-05-05T03:25:12.351Z,92.36
2018-05-05T03:27:39.987Z,93.40
2018-05-05T03:30:07.631Z,94.51
2018-05-05T03:32:35.286Z,94.35
2018-05-05T03:35:03.383Z,93.66
2018-05-05T03:37:31.070Z,92.93
2018-05-05T03:39:59.100Z,93.81
2018-05-05T03:42:26.776Z,93.11
2018-05-05T03:44:54.406Z,92.89
2018-05-05T03:47:22.051Z,92.86
2018-05-05T03:49:49.646Z,92.50
2018-05-05T03:52:17.273Z,92.42
2018-05-05T03:54:45.062Z,92.84
2018-05-05T03:57:12.697Z,92.86
2018-05-05T03:59:52.196Z,92.76
2018-05-05T04:02:31.508Z,93.14
2018-05-05T04:07:54.462Z,93.58
2018-05-05T04:10:22.150Z,94.06
2018-05-05T04:12:49.764Z,94.31
2018-05-05T04:15:18.608Z,94.00
2018-05-05T04:17:46.278Z,93.54
2018-05-05T04:20:13.909Z,93.45
2018-05-05T04:22:41.568Z,93.75
2018-05-05T04:25:09.196Z,94.06
2018-05-05T04:27:36.857Z,93.84
2018-05-05T04:30:04.558Z,93.35
2018-05-05T04:32:32.166Z,93.07
2018-05-05T04:34:59.808Z,92.80
2018-05-05T04:37:27.431Z,92.34
2018-05-05T04:39:55.068Z,92.48
2018-05-05T04:42:22.725Z,91.95
2018-05-05T04:44:50.398Z,92.20
2018-05-05T04:47:18.117Z,92.14
2018-05-05T04:49:45.754Z,92.34
2018-05-05T04:52:13.433Z,92.37
2018-05-05T04:54:41.062Z,92.24
2018-05-05T04:57:08.673Z,92.37
2018-05-05T04:59:36.338Z,92.72
2018-05-05T05:02:03.952Z,92.72
2018-05-05T05:04:31.577Z,92.78
2018-05-05T05:06:59.235Z,92.33
2018-05-05T05:09:26.846Z,92.20
2018-05-05T05:11:54.511Z,92.41
2018-05-05T05:14:22.145Z,93.77
2018-05-05T05:16:49.913Z,94.93
2018-05-05T05:19:17.486Z,95.14
2018-05-05T05:21:45.131Z,94.95
2018-05-05T05:24:12.842Z,95.03
2018-05-05T05:26:40.499Z,95.15
2018-05-05T05:29:08.143Z,94.84
2018-05-05T05:31:35.765Z,94.65
2018-05-05T05:34:03.520Z,94.14
2018-05-05T05:36:31.239Z,93.43
2018-05-05T05:38:58.944Z,92.97
2018-05-05T05:41:26.607Z,92.56
2018-05-05T05:43:54.307Z,92.76
2018-05-05T05:46:22.191Z,92.84
2018-05-05T05:48:49.872Z,92.69
2018-05-05T05:51:17.572Z,92.77
2018-05-05T05:53:45.198Z,92.47
2018-05-05T05:56:12.994Z,92.62
2018-05-05T05:58:40.623Z,92.54
2018-05-05T06:01:09.120Z,92.51
2018-05-05T06:03:36.776Z,92.32
2018-05-05T06:06:04.470Z,92.06
2018-05-05T06:08:32.130Z,91.96
2018-05-05T06:10:59.935Z,91.88
2018-05-05T06:13:27.549Z,91.76
2018-05-05T06:15:55.219Z,91.99
2018-05-05T06:18:22.875Z,91.72
2018-05-05T06:20:50.527Z,91.31
2018-05-05T06:23:18.125Z,91.29
2018-05-05T06:25:45.830Z,91.12
2018-05-05T06:28:13.436Z,91.46
2018-05-05T06:30:41.859Z,91.61
2018-05-05T06:33:09.570Z,93.09
2018-05-05T06:35:37.254Z,93.15
2018-05-05T06:38:04.978Z,92.25
2018-05-05T06:40:33.466Z,91.44
2018-05-05T06:43:01.086Z,90.10
2018-05-05T06:45:28.777Z,89.79
2018-05-05T06:47:56.491Z,89.33
2018-05-05T06:50:24.178Z,89.94
2018-05-05T06:52:51.802Z,89.99
2018-05-05T06:55:19.470Z,89.91
2018-05-05T06:57:47.068Z,89.61
2018-05-05T07:00:14.699Z,89.31
2018-05-05T07:02:42.420Z,89.51
2018-05-05T07:05:10.046Z,88.80
2018-05-05T07:07:37.919Z,86.34
2018-05-05T07:10:05.782Z,87.15
2018-05-05T07:12:33.464Z,86.67
2018-05-05T07:15:01.152Z,85.79
2018-05-05T07:17:28.807Z,84.57
2018-05-05T07:19:56.529Z,85.53
2018-05-05T07:22:24.193Z,85.20
2018-05-05T07:24:52.109Z,85.20
2018-05-05T07:27:19.813Z,86.21
2018-05-05T07:29:47.926Z,86.30
2018-05-05T07:32:15.533Z,87.30
2018-05-05T07:34:43.185Z,86.84
2018-05-05T07:37:10.839Z,86.60
2018-05-05T07:39:38.468Z,86.13
2018-05-05T07:42:06.130Z,85.41
2018-05-05T07:44:33.773Z,84.67
2018-05-05T07:47:01.392Z,83.03
2018-05-05T07:49:29.036Z,82.58
2018-05-05T07:51:56.658Z,82.19
2018-05-05T07:54:24.359Z,83.20
2018-05-05T07:56:52.064Z,82.75
2018-05-05T07:59:19.846Z,82.45
2018-05-05T08:01:47.450Z,81.87
2018-05-05T08:04:15.108Z,81.19
2018-05-05T08:06:42.762Z,80.43
2018-05-05T08:09:10.474Z,80.29
2018-05-05T08:11:38.092Z,80.27
2018-05-05T08:14:05.701Z,79.71
2018-05-05T08:16:33.375Z,79.53
2018-05-05T08:19:01.517Z,80.17
2018-05-05T08:21:29.878Z,80.59
2018-05-05T08:23:57.512Z,79.61
2018-05-05T08:26:25.216Z,79.86
2018-05-05T08:28:52.864Z,78.06
2018-05-05T08:31:20.500Z,74.17
2018-05-05T08:33:48.144Z,74.04
2018-05-05T08:36:15.867Z,72.27
2018-05-05T08:38:43.522Z,75.01
2018-05-05T08:41:11.223Z,74.91
2018-05-05T08:43:38.828Z,74.51
2018-05-05T08:46:06.480Z,71.96
2018-05-05T08:48:34.079Z,75.20
2018-05-05T08:51:01.756Z,76.92
2018-05-05T08:53:30.393Z,76.97
2018-05-05T08:55:58.034Z,77.32
2018-05-05T08:58:25.717Z,77.20
2018-05-05T09:00:53.373Z,75.00
2018-05-05T09:03:21.972Z,75.49
2018-05-05T09:05:49.612Z,74.17
2018-05-05T09:08:17.281Z,75.01
2018-05-05T09:10:44.916Z,76.77
2018-05-05T09:13:12.612Z,78.12
2018-05-05T09:15:40.264Z,80.04
2018-05-05T09:18:07.955Z,79.38
2018-05-05T09:20:35.626Z,80.16
2018-05-05T09:23:04.049Z,81.54
2018-05-05T09:25:31.739Z,82.67
2018-05-05T09:27:59.417Z,83.13
2018-05-05T09:30:27.071Z,85.22
2018-05-05T09:32:54.735Z,85.69
2018-05-05T09:35:22.371Z,85.50
2018-05-05T09:37:50.087Z,85.34
2018-05-05T09:40:17.760Z,84.10
2018-05-05T09:42:45.501Z,85.19
2018-05-05T09:45:13.125Z,85.54
2018-05-05T09:47:40.825Z,86.02
2018-05-05T09:50:08.427Z,86.35
2018-05-05T09:52:36.067Z,86.72
2018-05-05T09:55:03.790Z,86.71
2018-05-05T09:57:31.421Z,86.96
2018-05-05T09:59:59.070Z,86.99
2018-05-05T10:02:26.752Z,87.32
2018-05-05T10:04:54.426Z,86.75
2018-05-05T10:07:22.152Z,86.15
2018-05-05T10:09:49.847Z,84.46
2018-05-05T10:12:17.525Z,82.56
2018-05-05T10:14:45.158Z,83.94
2018-05-05T10:17:12.821Z,83.70
2018-05-05T10:19:40.444Z,84.51
2018-05-05T10:22:08.141Z,82.92
2018-05-05T10:24:35.856Z,79.64
2018-05-05T10:27:03.469Z,80.87
2018-05-05T10:29:31.181Z,80.59
2018-05-05T10:31:58.823Z,80.61
2018-05-05T10:34:26.537Z,80.57
2018-05-05T10:36:54.233Z,79.77
2018-05-05T10:39:22.092Z,80.48
2018-05-05T10:41:49.800Z,80.54
2018-05-05T10:44:17.508Z,79.04
2018-05-05T10:46:45.158Z,79.03
2018-05-05T10:49:12.939Z,78.77
2018-05-05T10:51:40.641Z,78.16
2018-05-05T10:54:08.360Z,76.82
2018-05-05T10:56:36.006Z,73.85
2018-05-05T10:59:03.800Z,74.37
2018-05-05T11:01:31.612Z,80.22
2018-05-05T11:03:59.251Z,78.35
2018-05-05T11:06:27.004Z,78.10
2018-05-05T11:08:54.656Z,80.12
2018-05-05T11:11:22.324Z,80.86
2018-05-05T11:13:50.001Z,81.63
2018-05-05T11:16:17.781Z,80.63
2018-05-05T11:18:45.431Z,81.96
2018-05-05T11:21:13.048Z,82.20
2018-05-05T11:23:40.750Z,81.90
2018-05-05T11:26:08.423Z,81.81
2018-05-05T11:28:36.046Z,82.51
2018-05-05T11:31:03.786Z,83.79
2018-05-05T11:33:31.461Z,84.99
2018-05-05T11:35:59.159Z,84.59
2018-05-05T11:38:26.816Z,84.19
2018-05-05T11:40:54.455Z,83.42
2018-05-05T11:43:22.161Z,84.46
2018-05-05T11:45:49.832Z,84.08
2018-05-05T11:48:17.526Z,84.91
2018-05-05T11:50:45.765Z,85.81
2018-05-05T11:53:13.478Z,85.24
2018-05-05T11:55:41.162Z,86.19
2018-05-05T11:58:08.759Z,86.16
2018-05-05T12:00:36.657Z,86.40
2018-05-05T12:03:04.305Z,86.52
2018-05-05T12:05:31.976Z,86.87
2018-05-05T12:07:59.718Z,87.76
2018-05-05T12:10:27.427Z,87.92
2018-05-05T12:12:55.056Z,88.40
2018-05-05T12:15:22.742Z,88.81
2018-05-05T12:17:50.444Z,88.43
2018-05-05T12:20:18.156Z,88.03
2018-05-05T12:22:45.856Z,87.40
2018-05-05T12:25:13.481Z,87.66
2018-05-05T12:27:41.158Z,86.93
2018-05-05T12:30:08.839Z,85.95
2018-05-05T12:32:36.487Z,86.03
2018-05-05T12:35:04.154Z,85.62
2018-05-05T12:37:31.923Z,84.61
2018-05-05T12:39:59.580Z,79.98
2018-05-05T12:42:27.313Z,80.15
2018-05-05T12:44:55.035Z,78.89
2018-05-05T12:47:22.717Z,81.09
2018-05-05T12:49:50.431Z,81.21
2018-05-05T12:52:18.037Z,83.04
2018-05-05T12:54:45.658Z,80.14
2018-05-05T12:57:13.387Z,79.66
2018-05-05T12:59:42.660Z,81.58
2018-05-05T13:02:10.299Z,82.25
2018-05-05T13:04:37.973Z,82.66
2018-05-05T13:07:05.681Z,81.01
2018-05-05T13:09:33.358Z,81.46
2018-05-05T13:12:01.068Z,81.78
2018-05-05T13:14:28.747Z,81.33
2018-05-05T13:16:56.438Z,77.10
2018-05-05T13:19:24.271Z,79.42
2018-05-05T13:21:52.807Z,77.83
2018-05-05T13:24:20.557Z,77.27
2018-05-05T13:26:48.442Z,79.89
2018-05-05T13:29:16.324Z,77.90
2018-05-05T13:31:43.988Z,75.67
2018-05-05T13:34:12.827Z,76.28
2018-05-05T13:36:40.626Z,76.48
2018-05-05T13:39:12.116Z,75.78
2018-05-05T13:41:39.862Z,73.05
2018-05-05T13:44:07.474Z,71.71
2018-05-05T13:46:35.168Z,70.22
2018-05-05T13:49:02.818Z,73.49
2018-05-05T13:51:30.572Z,74.22
2018-05-05T13:53:58.422Z,71.46
2018-05-05T13:56:26.223Z,70.01
2018-05-05T13:58:53.921Z,71.55
2018-05-05T14:01:21.536Z,69.55
2018-05-05T14:03:49.785Z,71.70
2018-05-05T14:06:17.500Z,71.40
2018-05-05T14:08:45.234Z,73.20
2018-05-05T14:11:12.880Z,73.37
2018-05-05T14:13:40.539Z,75.67
2018-05-05T14:16:08.877Z,75.11
2018-05-05T14:18:37.810Z,75.98
2018-05-05T14:21:05.475Z,76.57
2018-05-05T14:23:33.120Z,78.45
2018-05-05T14:26:00.812Z,78.47
2018-05-05T14:28:28.505Z,78.38
2018-05-05T14:30:56.175Z,78.89
2018-05-05T14:33:23.931Z,79.26
2018-05-05T14:35:51.647Z,78.58
2018-05-05T14:38:19.283Z,78.97
2018-05-05T14:40:46.960Z,78.28
2018-05-05T14:43:14.635Z,78.61
2018-05-05T14:45:42.285Z,77.70
2018-05-05T14:48:09.947Z,77.14
2018-05-05T14:50:37.686Z,78.18
2018-05-05T14:53:05.540Z,79.45
2018-05-05T14:55:34.185Z,80.95
2018-05-05T14:58:01.906Z,81.12
2018-05-05T15:00:29.540Z,82.38
2018-05-05T15:02:57.355Z,81.77
2018-05-05T15:05:25.388Z,80.93
2018-05-05T15:07:54.302Z,80.65
2018-05-05T15:10:21.996Z,80.03
2018-05-05T15:12:49.674Z,79.38
2018-05-05T15:15:17.367Z,78.42
2018-05-05T15:17:44.994Z,79.04
2018-05-05T15:20:12.717Z,80.90
2018-05-05T15:22:41.317Z,81.48
2018-05-05T15:25:09.076Z,80.45
2018-05-05T15:27:36.759Z,80.60
2018-05-05T15:30:04.461Z,79.44
2018-05-05T15:32:32.164Z,78.41
2018-05-05T15:34:59.867Z,79.66
2018-05-05T15:37:27.530Z,79.98
2018-05-05T15:39:55.297Z,80.52
2018-05-05T15:42:23.042Z,80.77
2018-05-05T15:44:50.762Z,79.25
2018-05-05T15:47:18.390Z,79.31
2018-05-05T15:49:46.440Z,78.06
2018-05-05T15:52:14.141Z,78.81
2018-05-05T15:54:41.763Z,77.95
2018-05-05T15:57:09.428Z,79.53
2018-05-05T15:59:37.143Z,80.17
2018-05-05T16:02:04.817Z,81.77
2018-05-05T16:04:32.506Z,83.21
2018-05-05T16:07:00.238Z,83.75
2018-05-05T16:09:27.948Z,82.80
2018-05-05T16:11:55.683Z,82.69
2018-05-05T16:14:23.475Z,81.55
2018-05-05T16:16:51.193Z,81.19
2018-05-05T16:19:19.153Z,82.19
2018-05-05T16:21:46.841Z,82.60
2018-05-05T16:24:14.552Z,83.16
2018-05-05T16:26:42.210Z,82.42
2018-05-05T16:29:09.853Z,82.60
2018-05-05T16:31:37.588Z,82.23
2018-05-05T16:34:05.391Z,83.34
2018-05-05T16:36:33.052Z,82.70
2018-05-05T16:39:00.849Z,82.81
2018-05-05T16:41:28.598Z,83.72
2018-05-05T16:43:57.179Z,84.06
2018-05-05T16:46:24.869Z,84.79
2018-05-05T16:48:52.889Z,85.50
2018-05-05T16:51:21.601Z,85.05
2018-05-05T16:53:49.313Z,85.26
2018-05-05T16:56:17.051Z,85.48
2018-05-05T16:58:46.115Z,84.32
2018-05-05T17:01:14.579Z,83.82
2018-05-05T17:03:42.268Z,85.80
2018-05-05T17:06:10.325Z,84.79
2018-05-05T17:08:38.184Z,84.46
2018-05-05T17:11:06.142Z,84.87
2018-05-05T17:13:34.108Z,86.57
2018-05-05T17:16:01.980Z,85.39
2018-05-05T17:18:29.986Z,84.92
2018-05-05T17:20:57.919Z,86.02
2018-05-05T17:23:25.552Z,86.55
2018-05-05T17:25:53.708Z,86.17
2018-05-05T17:28:21.520Z,85.80
2018-05-05T17:30:49.257Z,85.79
2018-05-05T17:33:16.876Z,85.40
2018-05-05T17:35:44.577Z,85.58
2018-05-05T17:38:13.387Z,85.04
2018-05-05T17:40:42.755Z,85.22
2018-05-05T17:43:11.177Z,85.72
2018-05-05T17:45:40.055Z,85.12
2018-05-05T17:48:09.370Z,85.32
2018-05-05T17:50:37.229Z,85.93
2018-05-05T17:53:04.952Z,86.14
2018-05-05T17:55:34.348Z,86.10
2018-05-05T17:58:02.291Z,86.54
2018-05-05T18:00:30.006Z,86.44
2018-05-05T18:02:58.418Z,87.01
2018-05-05T18:05:28.542Z,87.35
2018-05-05T18:07:56.424Z,87.91
2018-05-05T18:10:24.524Z,86.86
2018-05-05T18:12:52.334Z,86.20
2018-05-05T18:15:20.033Z,86.31
2018-05-05T18:17:47.724Z,87.87
2018-05-05T18:20:15.423Z,87.10
2018-05-05T18:22:43.040Z,88.18
2018-05-05T18:25:10.742Z,87.41
2018-05-05T18:27:38.423Z,87.44
2018-05-05T18:30:06.164Z,88.54
2018-05-05T18:32:34.343Z,88.95
2018-05-05T18:35:02.139Z,88.57
2018-05-05T18:37:29.916Z,87.63
2018-05-05T18:39:57.671Z,88.45
2018-05-05T18:42:25.361Z,88.49
2018-05-05T18:44:53.128Z,88.72
2018-05-05T18:47:20.967Z,88.37
2018-05-05T18:49:48.811Z,88.06
2018-05-05T18:52:16.606Z,88.00
2018-05-05T18:54:44.395Z,89.02
2018-05-05T18:57:12.116Z,88.73
2018-05-05T18:59:39.787Z,88.66
2018-05-05T19:02:07.523Z,88.18
2018-05-05T19:04:35.266Z,88.16
2018-05-05T19:07:03.038Z,87.83
2018-05-05T19:09:30.832Z,88.57
2018-05-05T19:11:59.112Z,88.20
2018-05-05T19:14:26.978Z,87.91
2018-05-05T19:16:54.974Z,87.61
2018-05-05T19:19:24.050Z,87.90
2018-05-05T19:21:51.753Z,87.92
2018-05-05T19:24:19.396Z,87.23
2018-05-05T19:26:47.153Z,88.16
2018-05-05T19:29:14.871Z,88.21
2018-05-05T19:31:42.625Z,87.96
2018-05-05T19:34:10.431Z,87.95
2018-05-05T19:36:39.353Z,88.19
2018-05-05T19:39:07.062Z,88.45
2018-05-05T19:41:34.778Z,88.09
2018-05-05T19:44:02.608Z,87.12
2018-05-05T19:46:30.360Z,86.85
2018-05-05T19:48:58.189Z,87.36
2018-05-05T19:51:25.861Z,87.22
2018-05-05T19:53:53.986Z,87.28
2018-05-05T19:56:21.637Z,87.30
2018-05-05T19:58:49.305Z,87.36
2018-05-05T20:01:17.259Z,87.53
2018-05-05T20:03:45.032Z,87.48
2018-05-05T20:06:12.805Z,87.83
2018-05-05T20:08:40.496Z,87.35
2018-05-05T20:11:08.376Z,87.69
2018-05-05T20:13:35.980Z,87.62
2018-05-05T20:16:04.899Z,87.28
2018-05-05T20:18:32.592Z,88.26
2018-05-05T20:21:00.683Z,89.07
2018-05-05T20:23:28.335Z,89.18
2018-05-05T20:25:56.046Z,88.18
2018-05-05T20:28:24.927Z,87.98
2018-05-05T20:30:52.589Z,87.66
2018-05-05T20:33:20.318Z,87.59
2018-05-05T20:35:47.938Z,88.13
2018-05-05T20:38:15.584Z,87.98
2018-05-05T20:40:43.420Z,88.59
2018-05-05T20:43:11.087Z,88.14
2018-05-05T20:45:39.143Z,87.78
2018-05-05T20:48:06.992Z,87.53
2018-05-05T20:50:34.722Z,87.62
2018-05-05T20:53:02.476Z,87.55
2018-05-05T20:55:30.181Z,87.88
2018-05-05T20:57:58.290Z,87.69
2018-05-05T21:00:26.945Z,87.75
2018-05-05T21:02:56.384Z,87.73
2018-05-05T21:05:24.071Z,88.17
2018-05-05T21:07:51.804Z,88.08
2018-05-05T21:10:19.506Z,88.11
2018-05-05T21:12:47.888Z,88.31
2018-05-05T21:15:15.543Z,88.83
2018-05-05T21:17:43.242Z,88.56
2018-05-05T21:20:10.948Z,88.46
2018-05-05T21:22:38.655Z,88.50
2018-05-05T21:25:06.441Z,88.40
2018-05-05T21:27:34.092Z,88.51
2018-05-05T21:30:01.857Z,88.24
2018-05-05T21:32:30.314Z,88.07
2018-05-05T21:34:59.002Z,88.32
2018-05-05T21:37:27.305Z,88.82
2018-05-05T21:39:54.942Z,88.94
2018-05-05T21:42:22.622Z,88.69
2018-05-05T21:44:50.249Z,89.13
2018-05-05T21:47:17.966Z,89.55
2018-05-05T21:49:45.601Z,89.43
2018-05-05T21:52:13.326Z,89.65
2018-05-05T21:54:41.743Z,89.04
2018-05-05T21:57:09.363Z,89.00
2018-05-05T21:59:36.984Z,88.87
2018-05-05T22:02:04.711Z,88.40
2018-05-05T22:04:32.423Z,88.55
2018-05-05T22:07:00.090Z,88.88
2018-05-05T22:09:27.782Z,89.25
2018-05-05T22:11:55.403Z,88.87
2018-05-05T22:14:23.106Z,89.19
2018-05-05T22:16:50.764Z,89.29
2018-05-05T22:19:18.475Z,88.98
2018-05-05T22:21:46.216Z,88.87
2018-05-05T22:24:13.872Z,89.13
2018-05-05T22:26:41.481Z,88.66
2018-05-05T22:29:09.105Z,88.81
2018-05-05T22:31:36.792Z,88.33
2018-05-05T22:34:04.452Z,88.34
2018-05-05T22:36:32.121Z,89.06
2018-05-05T22:38:59.756Z,89.42
2018-05-05T22:41:27.427Z,89.17
2018-05-05T22:43:55.037Z,89.55
2018-05-05T22:46:22.759Z,90.66
2018-05-05T22:48:50.415Z,90.14
2018-05-05T22:51:18.097Z,89.13
2018-05-05T22:53:45.781Z,88.87
2018-05-05T22:56:13.384Z,88.51
2018-05-05T22:58:41.075Z,88.87
2018-05-05T23:01:08.677Z,88.77
2018-05-05T23:03:36.413Z,88.97
2018-05-05T23:06:04.059Z,89.22
2018-05-05T23:08:31.709Z,89.79
2018-05-05T23:10:59.362Z,89.80
2018-05-05T23:13:27.078Z,89.76
2018-05-05T23:15:54.794Z,90.04
2018-05-05T23:18:22.613Z,89.71
2018-05-05T23:20:50.337Z,89.29
2018-05-05T23:23:17.968Z,89.70
2018-05-05T23:25:45.610Z,89.93
2018-05-05T23:28:13.345Z,89.79
2018-05-05T23:30:40.964Z,90.19
2018-05-05T23:33:08.680Z,90.43
2018-05-05T23:35:36.366Z,90.43
2018-05-05T23:38:04.048Z,90.07
2018-05-05T23:40:31.647Z,89.36
2018-05-05T23:42:59.337Z,89.12
2018-05-05T23:45:27.046Z,89.08
2018-05-05T23:47:54.657Z,89.27
2018-05-05T23:50:22.325Z,89.82
2018-05-05T23:52:50.086Z,89.80
2018-05-05T23:55:17.772Z,89.21
2018-05-05T23:57:45.519Z,89.55
